Hao, French Polynesia
Current Conditions -  °F | °C
As of 5:00 PM on Saturday 25 Oct 2014 (Local Time) from NTAA Reporting Station
Scattered Clouds Scattered Clouds  
Wind Chill: 82°   Ceiling: Unl
Heat Index: 87°   Visibility: 6mi
Dew Point: 72°   Wind: 8mph
Humidity: 70%   Direction: 200°SSW
Pressure: 29.83"   Gusts: NA
Location:  18.25°S, 140.9°W
Report Text: NTAA 260200Z 20007KT 9999 SCT023 SCT040 28/22 Q1010 NOSIG
Loading
Personal Weather Stations






























Interactive Weather Map
Tropical Storm Tracking
New forecast layout! Learn more

10-Day Weather Forecast

Advertisements
Track Severe Weather on mobile